createdAt,value
2023-01-28T00:01:07.008Z,100858.06
2023-01-28T00:06:05.457Z,100856.44
2023-01-28T00:11:05.505Z,100860.06
2023-01-28T00:16:04.976Z,100857.31
2023-01-28T00:21:03.684Z,100865.84
2023-01-28T00:26:02.062Z,100870.34
2023-01-28T00:31:07.028Z,100873.59
2023-01-28T00:36:06.677Z,100871.91
2023-01-28T00:41:10.735Z,100874.41
2023-01-28T00:46:10.702Z,100877.91
2023-01-28T00:51:09.223Z,100883.88
2023-01-28T00:56:07.864Z,100892.44
2023-01-28T01:01:11.232Z,100883.78
2023-01-28T01:06:09.664Z,100889.66
2023-01-28T01:11:08.011Z,100896.56
2023-01-28T01:16:06.811Z,100903.38
2023-01-28T01:21:08.573Z,100898.31
2023-01-28T01:26:07.230Z,100899.44
2023-01-28T01:31:06.890Z,100900.16
2023-01-28T01:36:06.598Z,100907.84
2023-01-28T01:41:05.916Z,100912.28
2023-01-28T01:46:03.852Z,100913.13
2023-01-28T01:51:04.086Z,100923.59
2023-01-28T01:56:05.585Z,100918.97
2023-01-28T02:01:03.769Z,100923.41
2023-01-28T02:06:01.710Z,100931.13
2023-01-28T02:11:01.791Z,100931.25
2023-01-28T02:16:02.126Z,100936.16
2023-01-28T02:21:12.413Z,100939.59
2023-01-28T02:26:27.330Z,100941.50
2023-01-28T02:31:29.009Z,100956.16
2023-01-28T02:36:31.660Z,100951.06
2023-01-28T02:41:33.567Z,100957.78
2023-01-28T02:46:54.204Z,100956.00
2023-01-28T02:51:57.223Z,100954.22
2023-01-28T02:56:58.046Z,100954.16
2023-01-28T03:02:01.681Z,100955.88
2023-01-28T03:07:04.293Z,100953.19
2023-01-28T03:12:22.009Z,100954.91
2023-01-28T03:17:41.945Z,100962.63
2023-01-28T03:22:58.415Z,100972.81
2023-01-28T03:28:17.301Z,100977.06
2023-01-28T03:33:34.668Z,100977.94
2023-01-28T03:38:34.193Z,100981.34
2023-01-28T03:43:32.420Z,100976.28
2023-01-28T03:48:31.771Z,100979.78
2023-01-28T03:53:32.195Z,100981.38
2023-01-28T03:58:46.150Z,100978.03
2023-01-28T04:03:46.573Z,100985.69
2023-01-28T04:08:54.662Z,100987.41
2023-01-28T04:14:02.857Z,100995.13
2023-01-28T04:19:16.202Z,101002.03
2023-01-28T04:24:15.844Z,101000.34
2023-01-28T04:29:13.797Z,100999.28
2023-01-28T04:34:11.666Z,100998.53
2023-01-28T04:39:18.833Z,100999.34
2023-01-28T04:44:36.556Z,101009.78
2023-01-28T04:50:05.430Z,101010.59
2023-01-28T04:55:16.773Z,101004.56
2023-01-28T05:00:17.133Z,101008.09
2023-01-28T05:05:15.526Z,101010.63
2023-01-28T05:10:29.485Z,101010.69
2023-01-28T05:15:27.328Z,101007.22
2023-01-28T05:20:25.712Z,101014.91
2023-01-28T05:25:27.736Z,101012.41
2023-01-28T05:30:27.178Z,101012.44
2023-01-28T05:35:25.263Z,101025.97
2023-01-28T05:40:23.312Z,101032.81
2023-01-28T05:45:22.374Z,101041.44
2023-01-28T05:50:56.980Z,101041.41
2023-01-28T05:56:20.949Z,101055.00
2023-01-28T06:01:20.608Z,101060.06
2023-01-28T06:06:25.239Z,101063.47
2023-01-28T06:11:23.232Z,101058.28
2023-01-28T06:16:24.503Z,101063.31
2023-01-28T06:21:44.395Z,101067.63
2023-01-28T06:26:44.472Z,101072.81
2023-01-28T06:31:42.940Z,101074.50
2023-01-28T06:36:40.768Z,101083.81
2023-01-28T06:41:39.893Z,101080.31
2023-01-28T06:46:37.745Z,101096.47
2023-01-28T06:51:35.553Z,101102.50
2023-01-28T06:56:33.374Z,101117.06
2023-01-28T07:01:32.793Z,101114.41
2023-01-28T07:06:30.715Z,101131.50
2023-01-28T07:11:28.516Z,101137.47
2023-01-28T07:16:26.365Z,101140.09
2023-01-28T07:21:25.559Z,101145.13
2023-01-28T07:26:23.724Z,101145.91
2023-01-28T07:31:21.615Z,101163.94
2023-01-28T07:36:19.510Z,101174.28
2023-01-28T07:41:18.848Z,101173.44
2023-01-28T07:46:16.697Z,101175.97
2023-01-28T07:51:14.785Z,101182.00
2023-01-28T07:56:12.652Z,101182.00
2023-01-28T08:01:11.898Z,101181.16
2023-01-28T08:06:11.652Z,101186.22
2023-01-28T08:11:10.902Z,101189.63
2023-01-28T08:16:09.064Z,101193.06
2023-01-28T08:21:08.466Z,101191.38
2023-01-28T08:26:06.343Z,101194.84
2023-01-28T08:31:04.495Z,101200.75
2023-01-28T08:36:03.863Z,101203.38
2023-01-28T08:41:03.129Z,101209.34
2023-01-28T08:46:01.039Z,101212.81
2023-01-28T08:51:00.159Z,101210.25
2023-01-28T08:55:58.008Z,101216.34
2023-01-28T09:00:57.298Z,101214.53
2023-01-28T09:05:55.176Z,101215.53
2023-01-28T09:10:55.911Z,101222.41
2023-01-28T09:15:54.083Z,101220.78
2023-01-28T09:20:53.385Z,101220.78
2023-01-28T09:25:51.217Z,101222.56
2023-01-28T09:30:49.123Z,101213.13
2023-01-28T09:35:47.093Z,101215.66
2023-01-28T09:40:46.515Z,101222.47
2023-01-28T09:45:46.858Z,101215.66
2023-01-28T09:50:46.897Z,101215.50
2023-01-28T09:55:48.162Z,101219.81
2023-01-28T10:00:51.513Z,101217.31
2023-01-28T10:05:54.999Z,101224.16
2023-01-28T10:10:57.173Z,101228.44
2023-01-28T10:16:00.173Z,101232.63
2023-01-28T10:21:03.379Z,101240.56
2023-01-28T10:26:05.867Z,101232.72
2023-01-28T10:31:03.925Z,101232.84
2023-01-28T10:36:01.810Z,101229.31
2023-01-28T10:41:01.745Z,101240.53
2023-01-28T10:46:04.297Z,101237.06
2023-01-28T10:51:05.226Z,101237.97
2023-01-28T10:56:03.877Z,101241.38
2023-01-28T11:01:04.689Z,101247.34
2023-01-28T11:06:03.395Z,101239.59
2023-01-28T11:11:01.432Z,101236.03
2023-01-28T11:16:01.520Z,101242.97
2023-01-28T11:21:01.995Z,101231.72
2023-01-28T11:26:01.802Z,101226.47
2023-01-28T11:31:01.257Z,101225.72
2023-01-28T11:36:06.891Z,101222.34
2023-01-28T11:41:04.875Z,101218.94
2023-01-28T11:46:10.596Z,101218.78
2023-01-28T11:51:15.765Z,101219.03
2023-01-28T11:56:18.945Z,101220.78
2023-01-28T12:01:23.277Z,101223.38
2023-01-28T12:06:35.652Z,101220.81
2023-01-28T12:11:50.902Z,101217.44
2023-01-28T12:16:56.360Z,101214.06
2023-01-28T12:22:11.481Z,101207.94
2023-01-28T12:27:16.277Z,101202.75
2023-01-28T12:32:20.124Z,101211.25
2023-01-28T12:37:23.329Z,101208.75
2023-01-28T12:42:25.834Z,101220.81
2023-01-28T12:47:27.711Z,101218.16
2023-01-28T12:52:30.843Z,101221.63
2023-01-28T12:57:29.659Z,101222.44
2023-01-28T13:02:33.667Z,101237.13
2023-01-28T13:07:36.516Z,101236.13
2023-01-28T13:12:34.900Z,101246.31
2023-01-28T13:17:33.717Z,101240.22
2023-01-28T13:22:35.334Z,101241.28
2023-01-28T13:27:33.230Z,101243.84
2023-01-28T13:32:35.527Z,101241.28
2023-01-28T13:37:36.206Z,101242.13
2023-01-28T13:42:34.274Z,101237.66
2023-01-28T13:47:37.975Z,101247.16
2023-01-28T13:52:43.881Z,101250.78
2023-01-28T13:57:53.525Z,101253.22
2023-01-28T14:03:08.668Z,101253.41
2023-01-28T14:08:32.141Z,101264.50
2023-01-28T14:13:47.700Z,101262.66
2023-01-28T14:18:46.857Z,101266.16
2023-01-28T14:23:50.811Z,101267.84
2023-01-28T14:28:55.143Z,101275.63
2023-01-28T14:33:53.236Z,101272.94
2023-01-28T14:38:52.590Z,101268.66
2023-01-28T14:43:50.741Z,101279.91
2023-01-28T14:48:52.332Z,101283.28
2023-01-28T14:54:10.864Z,101285.91
2023-01-28T14:59:19.829Z,101284.25
2023-01-28T15:04:27.527Z,101285.03
2023-01-28T15:09:25.866Z,101289.34
2023-01-28T15:14:28.000Z,101296.28
2023-01-28T15:19:28.173Z,101297.19
2023-01-28T15:24:26.575Z,101301.44
2023-01-28T15:29:27.167Z,101312.59
2023-01-28T15:34:30.184Z,101309.16
2023-01-28T15:39:29.126Z,101314.34
2023-01-28T15:44:31.213Z,101316.84
2023-01-28T15:49:31.571Z,101315.16
2023-01-28T15:54:30.457Z,101322.91
2023-01-28T15:59:31.317Z,101325.44
2023-01-28T16:04:30.185Z,101333.97
2023-01-28T16:09:29.499Z,101327.97
2023-01-28T16:14:28.610Z,101339.16
2023-01-28T16:19:34.006Z,101340.88
2023-01-28T16:24:33.067Z,101343.44
2023-01-28T16:29:32.260Z,101346.81
2023-01-28T16:34:31.644Z,101347.69
2023-01-28T16:39:30.072Z,101346.84
2023-01-28T16:44:28.034Z,101356.28
2023-01-28T16:49:26.089Z,101365.66
2023-01-28T16:54:25.619Z,101371.66
2023-01-28T16:59:23.620Z,101369.97
2023-01-28T17:04:21.540Z,101370.84
2023-01-28T17:09:19.554Z,101383.69
2023-01-28T17:14:18.837Z,101383.72
2023-01-28T17:19:17.594Z,101383.69
2023-01-28T17:24:15.480Z,101393.09
2023-01-28T17:29:13.431Z,101389.75
2023-01-28T17:34:12.755Z,101389.69
2023-01-28T17:39:10.813Z,101395.72
2023-01-28T17:44:08.765Z,101401.72
2023-01-28T17:49:06.705Z,101406.00
2023-01-28T17:54:06.166Z,101406.81
2023-01-28T17:59:06.911Z,101407.69
2023-01-28T18:04:05.469Z,101410.31
2023-01-28T18:09:03.451Z,101412.00
2023-01-28T18:14:02.782Z,101409.38
2023-01-28T18:19:00.702Z,101415.41
2023-01-28T18:23:58.609Z,101416.25
2023-01-28T18:28:58.885Z,101425.69
2023-01-28T18:33:59.620Z,101418.78
2023-01-28T18:38:58.262Z,101426.50
2023-01-28T18:43:56.325Z,101427.38
2023-01-28T18:48:54.327Z,101418.81
2023-01-28T18:53:55.530Z,101426.53
2023-01-28T18:58:56.881Z,101418.81
2023-01-28T19:03:55.407Z,101431.66
2023-01-28T19:08:55.139Z,101438.53
2023-01-28T19:13:53.082Z,101437.66
2023-01-28T19:18:54.557Z,101440.25
2023-01-28T19:23:57.066Z,101434.19
2023-01-28T19:28:56.683Z,101448.78
2023-01-28T19:33:55.767Z,101445.38
2023-01-28T19:38:55.204Z,101441.94
2023-01-28T19:43:54.868Z,101436.78
2023-01-28T19:48:52.879Z,101448.81
2023-01-28T19:53:51.544Z,101445.34
2023-01-28T19:58:49.562Z,101448.78
2023-01-28T20:03:50.898Z,101455.63
2023-01-28T20:08:55.154Z,101448.78
2023-01-28T20:13:55.617Z,101459.09
2023-01-28T20:18:57.935Z,101465.09
2023-01-28T20:24:00.302Z,101460.81
2023-01-28T20:29:00.835Z,101458.25
2023-01-28T20:34:01.893Z,101460.78
2023-01-28T20:39:01.883Z,101465.97
2023-01-28T20:44:01.584Z,101476.22
2023-01-28T20:49:03.055Z,101475.38
2023-01-28T20:54:02.292Z,101483.09
2023-01-28T20:59:01.366Z,101483.97
2023-01-28T21:03:59.979Z,101489.09
2023-01-28T21:08:59.443Z,101495.06
2023-01-28T21:13:58.841Z,101489.94
2023-01-28T21:18:57.032Z,101488.25
2023-01-28T21:23:57.955Z,101493.38
2023-01-28T21:28:57.418Z,101505.38
2023-01-28T21:33:56.101Z,101500.22
2023-01-28T21:38:54.695Z,101507.94
2023-01-28T21:43:53.867Z,101501.94
2023-01-28T21:48:56.865Z,101496.81
2023-01-28T21:53:54.919Z,101511.38
2023-01-28T21:59:09.812Z,101500.22
2023-01-28T22:04:09.101Z,101505.34
2023-01-28T22:09:11.752Z,101511.34
2023-01-28T22:14:09.740Z,101508.81
2023-01-28T22:19:09.344Z,101516.50
2023-01-28T22:24:07.827Z,101509.63
2023-01-28T22:29:06.391Z,101515.66
2023-01-28T22:34:04.838Z,101514.78
2023-01-28T22:39:05.582Z,101505.38
2023-01-28T22:44:04.402Z,101512.22
2023-01-28T22:49:03.295Z,101507.09
2023-01-28T22:54:01.323Z,101502.81
2023-01-28T22:59:01.383Z,101506.19
2023-01-28T23:03:59.397Z,101507.06
2023-01-28T23:08:57.364Z,101507.09
2023-01-28T23:14:13.928Z,101511.38
2023-01-28T23:19:31.207Z,101513.06
2023-01-28T23:24:29.647Z,101513.91
2023-01-28T23:29:28.348Z,101520.78
2023-01-28T23:34:29.737Z,101530.22
2023-01-28T23:39:27.661Z,101523.34
2023-01-28T23:44:25.998Z,101525.94
2023-01-28T23:49:23.982Z,101523.34
2023-01-28T23:54:23.378Z,101528.50
2023-01-28T23:59:21.514Z,101525.06
